createdAt,value
2017-09-15T00:00:04.151Z,28.05
2017-09-15T00:00:08.393Z,28.20
2017-09-15T00:00:12.651Z,28.20
2017-09-15T00:00:16.910Z,28.25
2017-09-15T00:00:21.166Z,28.35
2017-09-15T00:00:25.392Z,28.45
2017-09-15T00:00:29.637Z,28.13
2017-09-15T00:00:33.874Z,28.55
2017-09-15T00:00:38.135Z,28.90
2017-09-15T00:00:42.369Z,29.95
2017-09-15T00:00:47.386Z,29.90
2017-09-15T00:00:51.634Z,29.87
2017-09-15T00:00:55.869Z,29.80
2017-09-15T00:01:00.114Z,30.00
2017-09-15T00:01:04.366Z,29.73
2017-09-15T00:01:08.624Z,29.85
2017-09-15T00:01:12.875Z,30.00
2017-09-15T00:01:17.131Z,30.50
2017-09-15T00:01:21.372Z,31.17
2017-09-15T00:01:25.626Z,31.50
2017-09-15T00:01:29.878Z,31.25
2017-09-15T00:01:34.125Z,30.05
2017-09-15T00:01:38.388Z,29.70
2017-09-15T00:01:43.422Z,29.30
2017-09-15T00:01:47.660Z,29.20
2017-09-15T00:01:51.897Z,28.55
2017-09-15T00:01:56.919Z,28.47
2017-09-15T00:02:01.160Z,28.23
2017-09-15T00:02:05.430Z,28.40
2017-09-15T00:02:10.439Z,28.15
2017-09-15T00:02:15.465Z,27.73
2017-09-15T00:02:20.742Z,27.43
2017-09-15T00:02:24.972Z,27.33
2017-09-15T00:02:29.998Z,27.70
2017-09-15T00:02:35.011Z,27.97
2017-09-15T00:02:39.270Z,28.10
2017-09-15T00:02:43.497Z,28.40
2017-09-15T00:02:47.752Z,28.30
2017-09-15T00:02:52.002Z,28.67
2017-09-15T00:02:56.247Z,29.05
2017-09-15T00:03:00.494Z,29.20
2017-09-15T00:03:04.743Z,29.00
2017-09-15T00:03:08.989Z,29.30
2017-09-15T00:03:13.242Z,29.25
2017-09-15T00:03:17.491Z,29.30
2017-09-15T00:03:21.731Z,29.45
2017-09-15T00:03:25.986Z,29.23
2017-09-15T00:03:30.242Z,28.75
2017-09-15T00:03:34.472Z,28.25
2017-09-15T00:03:38.728Z,27.80
2017-09-15T00:03:43.740Z,27.50
2017-09-15T00:03:48.749Z,27.20
2017-09-15T00:03:53.757Z,26.80
2017-09-15T00:03:58.001Z,26.37
2017-09-15T00:04:02.255Z,26.40
2017-09-15T00:04:06.492Z,26.15
2017-09-15T00:04:10.751Z,26.13
2017-09-15T00:04:15.001Z,26.00
2017-09-15T00:04:19.247Z,26.00
2017-09-15T00:04:23.519Z,26.20
2017-09-15T00:04:27.762Z,26.30
2017-09-15T00:04:31.988Z,26.60
2017-09-15T00:04:36.242Z,26.90
2017-09-15T00:04:40.557Z,27.07
2017-09-15T00:04:44.796Z,27.05
2017-09-15T00:04:49.056Z,27.70
2017-09-15T00:04:53.298Z,27.90
2017-09-15T00:04:57.567Z,28.27
2017-09-15T00:05:01.792Z,28.45
2017-09-15T00:05:06.067Z,28.70
2017-09-15T00:05:10.310Z,28.63
2017-09-15T00:05:14.563Z,28.70
2017-09-15T00:05:18.805Z,28.25
2017-09-15T00:05:23.041Z,27.80
2017-09-15T00:05:27.284Z,27.90
2017-09-15T00:05:31.524Z,27.60
2017-09-15T00:05:35.773Z,27.25
2017-09-15T00:05:40.787Z,27.10
2017-09-15T00:05:45.784Z,27.13
2017-09-15T00:05:50.045Z,26.10
2017-09-15T00:05:54.288Z,25.90
2017-09-15T00:05:58.524Z,25.35
2017-09-15T00:06:02.778Z,24.90
2017-09-15T00:06:07.776Z,24.70
2017-09-15T00:06:12.042Z,24.67
2017-09-15T00:06:16.300Z,24.70
2017-09-15T00:06:20.542Z,25.00
2017-09-15T00:06:24.790Z,25.10
2017-09-15T00:06:29.046Z,25.00
2017-09-15T00:06:33.286Z,25.10
2017-09-15T00:06:37.550Z,25.20
2017-09-15T00:06:41.801Z,25.20
2017-09-15T00:06:46.044Z,25.43
2017-09-15T00:06:50.294Z,25.70
2017-09-15T00:06:54.552Z,25.50
2017-09-15T00:06:58.795Z,25.20
2017-09-15T00:07:03.045Z,25.27
2017-09-15T00:07:07.295Z,24.95
2017-09-15T00:07:11.521Z,24.75
2017-09-15T00:07:16.550Z,24.47
2017-09-15T00:07:21.561Z,24.17
2017-09-15T00:07:26.563Z,24.00
2017-09-15T00:07:30.823Z,24.20
2017-09-15T00:07:35.053Z,24.30
2017-09-15T00:07:39.302Z,24.60
2017-09-15T00:07:43.536Z,24.75
2017-09-15T00:07:47.785Z,25.83
2017-09-15T00:07:52.810Z,25.60
2017-09-15T00:07:57.834Z,25.60
2017-09-15T00:08:02.850Z,25.93
2017-09-15T00:08:07.871Z,25.87
2017-09-15T00:08:12.116Z,25.80
2017-09-15T00:08:16.388Z,25.70
2017-09-15T00:08:20.609Z,25.07
2017-09-15T00:08:24.862Z,24.80
2017-09-15T00:08:29.876Z,24.80
2017-09-15T00:08:34.872Z,24.50
2017-09-15T00:08:39.120Z,24.17
2017-09-15T00:08:43.370Z,24.17
2017-09-15T00:08:47.638Z,23.60
2017-09-15T00:08:51.893Z,23.85
2017-09-15T00:08:56.898Z,24.10
2017-09-15T00:09:01.137Z,23.77
2017-09-15T00:09:05.432Z,23.70
2017-09-15T00:09:09.670Z,24.10
2017-09-15T00:09:13.912Z,23.85
2017-09-15T00:09:18.931Z,24.55
2017-09-15T00:09:23.976Z,25.07
2017-09-15T00:09:28.212Z,24.55
2017-09-15T00:09:32.448Z,24.20
2017-09-15T00:09:37.459Z,24.80
2017-09-15T00:09:42.468Z,24.13
2017-09-15T00:09:46.719Z,23.77
2017-09-15T00:09:50.976Z,23.70
2017-09-15T00:09:55.984Z,22.97
2017-09-15T00:10:00.233Z,23.47
2017-09-15T00:10:04.488Z,22.70
2017-09-15T00:10:09.506Z,22.40
2017-09-15T00:10:13.755Z,22.37
2017-09-15T00:10:17.988Z,22.50
2017-09-15T00:10:22.239Z,22.50
2017-09-15T00:10:26.473Z,22.60
2017-09-15T00:10:30.714Z,22.80
2017-09-15T00:10:35.720Z,22.57
2017-09-15T00:10:39.986Z,22.13
2017-09-15T00:10:44.220Z,22.25
2017-09-15T00:10:49.086Z,22.50
2017-09-15T00:10:53.324Z,22.80
2017-09-15T00:10:57.558Z,22.65
2017-09-15T00:11:02.575Z,22.60
2017-09-15T00:11:07.584Z,22.80
2017-09-15T00:11:12.584Z,22.90
2017-09-15T00:11:16.855Z,22.93
2017-09-15T00:11:21.092Z,23.10
2017-09-15T00:11:26.110Z,23.00
2017-09-15T00:11:30.348Z,22.80
2017-09-15T00:11:34.623Z,23.05
2017-09-15T00:11:39.642Z,23.37
2017-09-15T00:11:44.653Z,23.53
2017-09-15T00:11:49.678Z,23.37
2017-09-15T00:11:54.707Z,23.17
2017-09-15T00:11:58.966Z,23.70
2017-09-15T00:12:03.196Z,23.75
2017-09-15T00:12:08.204Z,23.40
2017-09-15T00:12:13.223Z,23.35
2017-09-15T00:12:18.224Z,23.03
2017-09-15T00:12:22.456Z,22.70
2017-09-15T00:12:26.722Z,22.40
2017-09-15T00:12:30.952Z,22.20
2017-09-15T00:12:36.026Z,22.00
2017-09-15T00:12:40.260Z,21.73
2017-09-15T00:12:45.272Z,21.50
2017-09-15T00:12:49.526Z,21.57
2017-09-15T00:12:53.756Z,22.10
2017-09-15T00:12:58.010Z,21.55
2017-09-15T00:13:02.244Z,22.03
2017-09-15T00:13:06.488Z,22.00
2017-09-15T00:13:11.507Z,21.30
2017-09-15T00:13:16.526Z,20.97
2017-09-15T00:13:21.540Z,21.30
2017-09-15T00:13:26.556Z,22.47
2017-09-15T00:13:31.553Z,22.63
2017-09-15T00:13:35.807Z,21.97
2017-09-15T00:13:40.038Z,22.00
2017-09-15T00:13:44.294Z,22.50
2017-09-15T00:13:48.539Z,22.35
2017-09-15T00:13:52.781Z,22.30
2017-09-15T00:13:57.798Z,22.23
2017-09-15T00:14:02.792Z,21.70
2017-09-15T00:14:07.040Z,21.60
2017-09-15T00:14:11.573Z,22.55
2017-09-15T00:14:15.788Z,22.80
2017-09-15T00:14:20.060Z,23.40
2017-09-15T00:14:24.284Z,23.35
2017-09-15T00:14:28.535Z,23.40
2017-09-15T00:14:32.768Z,23.70
2017-09-15T00:14:37.016Z,24.20
2017-09-15T00:14:42.047Z,24.65
2017-09-15T00:14:46.285Z,24.40
2017-09-15T00:14:50.539Z,24.55
2017-09-15T00:14:55.554Z,24.53
2017-09-15T00:15:00.563Z,25.37
2017-09-15T00:15:05.598Z,25.40
2017-09-15T00:15:10.619Z,24.80
2017-09-15T00:15:14.868Z,24.00
2017-09-15T00:15:19.123Z,23.35
2017-09-15T00:15:23.375Z,23.00
2017-09-15T00:15:27.618Z,23.00
2017-09-15T00:15:31.861Z,22.90
2017-09-15T00:15:36.134Z,22.70
2017-09-15T00:15:40.352Z,22.60
2017-09-15T00:15:44.606Z,22.53
2017-09-15T00:15:49.616Z,22.70
2017-09-15T00:15:54.659Z,22.50
2017-09-15T00:15:58.893Z,22.00
2017-09-15T00:16:03.153Z,21.90
2017-09-15T00:16:08.147Z,21.80
2017-09-15T00:16:12.393Z,21.80
2017-09-15T00:16:16.637Z,21.50
2017-09-15T00:16:20.900Z,21.20
2017-09-15T00:16:25.133Z,21.40
2017-09-15T00:16:29.382Z,21.30
2017-09-15T00:16:33.629Z,21.15
2017-09-15T00:16:37.895Z,21.10
2017-09-15T00:16:42.124Z,21.10
2017-09-15T00:16:46.391Z,20.90
2017-09-15T00:16:50.627Z,20.55
2017-09-15T00:16:54.864Z,20.55
2017-09-15T00:16:59.131Z,20.50
2017-09-15T00:17:03.392Z,20.50
2017-09-15T00:17:07.638Z,20.60
2017-09-15T00:17:11.872Z,20.60
2017-09-15T00:17:16.112Z,22.05
2017-09-15T00:17:20.378Z,22.37
2017-09-15T00:17:25.386Z,22.35
2017-09-15T00:17:29.620Z,22.57
2017-09-15T00:17:33.862Z,23.05
2017-09-15T00:17:38.104Z,23.37
2017-09-15T00:17:42.341Z,21.70
2017-09-15T00:17:46.596Z,21.50
2017-09-15T00:17:50.853Z,21.60
2017-09-15T00:17:55.094Z,21.60
2017-09-15T00:17:59.352Z,21.40
2017-09-15T00:18:03.580Z,21.20
2017-09-15T00:18:08.598Z,20.90
2017-09-15T00:18:13.607Z,21.23
2017-09-15T00:18:18.626Z,21.43
2017-09-15T00:18:23.638Z,21.30
2017-09-15T00:18:28.650Z,21.40
2017-09-15T00:18:32.902Z,21.10
2017-09-15T00:18:37.141Z,20.70
2017-09-15T00:18:41.403Z,20.85
2017-09-15T00:18:45.637Z,21.00
2017-09-15T00:18:49.881Z,20.93
2017-09-15T00:18:54.120Z,21.05
2017-09-15T00:18:58.353Z,21.40
2017-09-15T00:19:03.356Z,21.70
2017-09-15T00:19:07.601Z,21.63
2017-09-15T00:19:11.863Z,21.23
2017-09-15T00:19:16.289Z,21.05
2017-09-15T00:19:21.301Z,21.65
2017-09-15T00:19:26.308Z,21.03
2017-09-15T00:19:30.575Z,20.52
2017-09-15T00:19:34.827Z,20.90
2017-09-15T00:19:39.834Z,21.35
2017-09-15T00:19:44.842Z,22.20
2017-09-15T00:19:49.083Z,22.33
2017-09-15T00:19:53.325Z,21.90
2017-09-15T00:19:57.595Z,21.23
2017-09-15T00:20:01.838Z,21.00
2017-09-15T00:20:06.103Z,21.10
2017-09-15T00:20:10.350Z,22.20
2017-09-15T00:20:14.601Z,22.37
2017-09-15T00:20:18.841Z,21.15
2017-09-15T00:20:23.099Z,21.10
2017-09-15T00:20:27.342Z,21.13
2017-09-15T00:20:31.593Z,21.30
2017-09-15T00:20:35.915Z,21.45
2017-09-15T00:20:40.120Z,21.30
2017-09-15T00:20:44.360Z,21.23
2017-09-15T00:20:49.390Z,21.00
2017-09-15T00:20:53.620Z,21.30
2017-09-15T00:20:57.853Z,21.45
2017-09-15T00:21:02.114Z,21.50
2017-09-15T00:21:06.375Z,21.60
2017-09-15T00:21:11.399Z,21.20
2017-09-15T00:21:16.411Z,21.43
2017-09-15T00:21:21.417Z,21.70
2017-09-15T00:21:26.416Z,22.27
2017-09-15T00:21:30.664Z,22.73
2017-09-15T00:21:34.922Z,22.50
2017-09-15T00:21:39.183Z,23.17
2017-09-15T00:21:43.412Z,23.40
2017-09-15T00:21:47.653Z,23.50
2017-09-15T00:21:52.663Z,23.65
2017-09-15T00:21:57.660Z,23.97
2017-09-15T00:22:01.905Z,24.70
2017-09-15T00:22:06.167Z,24.00
2017-09-15T00:22:10.405Z,24.35
2017-09-15T00:22:14.650Z,24.25
2017-09-15T00:22:18.893Z,24.13
2017-09-15T00:22:23.155Z,25.30
2017-09-15T00:22:27.384Z,25.45
2017-09-15T00:22:32.409Z,25.20
2017-09-15T00:22:37.426Z,25.30
2017-09-15T00:22:42.425Z,24.37
2017-09-15T00:22:47.443Z,24.90
2017-09-15T00:22:51.698Z,25.85
2017-09-15T00:22:55.963Z,25.05
2017-09-15T00:23:00.974Z,24.85
2017-09-15T00:23:05.987Z,26.93
2017-09-15T00:23:10.983Z,27.17
2017-09-15T00:23:15.225Z,27.07
2017-09-15T00:23:19.456Z,27.10
2017-09-15T00:23:24.483Z,26.70
2017-09-15T00:23:28.746Z,26.90
2017-09-15T00:23:32.997Z,27.15
2017-09-15T00:23:37.243Z,26.95
2017-09-15T00:23:41.494Z,27.50
2017-09-15T00:23:46.556Z,26.20
2017-09-15T00:23:50.807Z,25.47
2017-09-15T00:23:55.050Z,25.95
2017-09-15T00:24:00.052Z,26.00
2017-09-15T00:24:05.053Z,23.67
2017-09-15T00:24:09.297Z,23.00
2017-09-15T00:24:13.559Z,22.30
2017-09-15T00:24:17.815Z,21.30
2017-09-15T00:24:22.056Z,20.35
2017-09-15T00:24:26.301Z,19.60
2017-09-15T00:24:30.541Z,19.45
2017-09-15T00:24:34.806Z,19.40
2017-09-15T00:24:39.032Z,19.15
2017-09-15T00:24:43.276Z,18.80
2017-09-15T00:24:48.296Z,18.55
2017-09-15T00:24:53.312Z,17.77
2017-09-15T00:24:58.334Z,17.70
2017-09-15T00:25:03.363Z,17.70
2017-09-15T00:25:08.378Z,17.50
2017-09-15T00:25:13.414Z,17.67
2017-09-15T00:25:18.410Z,17.80
2017-09-15T00:25:23.426Z,17.80
2017-09-15T00:25:28.432Z,17.80
2017-09-15T00:25:32.660Z,17.57
2017-09-15T00:25:36.916Z,17.25
2017-09-15T00:25:41.166Z,17.27
2017-09-15T00:25:45.418Z,17.35
2017-09-15T00:25:49.660Z,17.50
2017-09-15T00:25:53.904Z,17.37
2017-09-15T00:25:58.160Z,16.85
2017-09-15T00:26:02.426Z,16.90
2017-09-15T00:26:06.662Z,17.20
2017-09-15T00:26:10.922Z,17.40
2017-09-15T00:26:15.160Z,17.50
2017-09-15T00:26:19.414Z,18.15
2017-09-15T00:26:23.659Z,18.20
2017-09-15T00:26:27.901Z,17.97
2017-09-15T00:26:32.136Z,17.75
2017-09-15T00:26:37.166Z,18.25
2017-09-15T00:26:42.182Z,17.97
2017-09-15T00:26:47.198Z,17.50
2017-09-15T00:26:52.218Z,16.97
2017-09-15T00:26:57.239Z,16.90
2017-09-15T00:27:02.240Z,17.00
2017-09-15T00:27:06.494Z,17.00
2017-09-15T00:27:10.732Z,17.07
2017-09-15T00:27:14.987Z,17.05
2017-09-15T00:27:19.239Z,16.55
2017-09-15T00:27:23.494Z,16.40
2017-09-15T00:27:27.741Z,16.50
2017-09-15T00:27:32.770Z,16.50
2017-09-15T00:27:37.812Z,16.50
2017-09-15T00:27:42.798Z,16.53
2017-09-15T00:27:47.819Z,16.60
2017-09-15T00:27:52.829Z,16.67
2017-09-15T00:27:57.072Z,16.50
2017-09-15T00:28:01.320Z,16.60
2017-09-15T00:28:05.587Z,16.87
2017-09-15T00:28:09.820Z,17.00
2017-09-15T00:28:14.072Z,17.50
2017-09-15T00:28:18.317Z,18.37
2017-09-15T00:28:22.548Z,18.40
2017-09-15T00:28:27.545Z,18.70
2017-09-15T00:28:31.803Z,18.97
2017-09-15T00:28:36.038Z,19.20
2017-09-15T00:28:40.299Z,19.37
2017-09-15T00:28:44.550Z,19.75
2017-09-15T00:28:49.567Z,19.70
2017-09-15T00:28:54.590Z,19.80
2017-09-15T00:28:58.996Z,20.60
2017-09-15T00:29:04.010Z,21.03
2017-09-15T00:29:09.029Z,20.43
2017-09-15T00:29:14.044Z,20.33
2017-09-15T00:29:19.062Z,19.80
2017-09-15T00:29:24.077Z,19.43
2017-09-15T00:29:29.117Z,19.17
2017-09-15T00:29:34.120Z,19.20
2017-09-15T00:29:39.151Z,18.80
2017-09-15T00:29:44.164Z,18.00
2017-09-15T00:29:49.172Z,17.40
2017-09-15T00:29:54.201Z,17.30
2017-09-15T00:29:59.233Z,16.40
2017-09-15T00:30:03.444Z,16.20
2017-09-15T00:30:07.680Z,16.00
2017-09-15T00:30:11.985Z,15.70
2017-09-15T00:30:16.251Z,15.60
2017-09-15T00:30:20.485Z,15.50
2017-09-15T00:30:24.732Z,15.37
2017-09-15T00:30:28.989Z,15.00
2017-09-15T00:30:33.247Z,15.20
2017-09-15T00:30:37.487Z,15.30
2017-09-15T00:30:41.731Z,15.23
2017-09-15T00:30:45.986Z,15.35
2017-09-15T00:30:50.234Z,15.50
2017-09-15T00:30:54.488Z,15.50
2017-09-15T00:30:58.781Z,15.43
2017-09-15T00:31:02.992Z,15.95
2017-09-15T00:31:07.225Z,16.10
2017-09-15T00:31:11.460Z,16.55
2017-09-15T00:31:15.710Z,15.90
2017-09-15T00:31:20.735Z,16.00
2017-09-15T00:31:25.772Z,17.13
2017-09-15T00:31:30.011Z,17.40
2017-09-15T00:31:34.267Z,17.50
2017-09-15T00:31:39.290Z,17.93
2017-09-15T00:31:43.528Z,18.27
2017-09-15T00:31:47.778Z,18.50
2017-09-15T00:31:52.768Z,17.85
2017-09-15T00:31:57.005Z,18.00
2017-09-15T00:32:01.263Z,18.15
2017-09-15T00:32:05.504Z,19.07
2017-09-15T00:32:09.753Z,19.75
2017-09-15T00:32:14.757Z,20.60
2017-09-15T00:32:19.761Z,20.97
2017-09-15T00:32:24.010Z,19.40
2017-09-15T00:32:28.251Z,19.23
2017-09-15T00:32:32.489Z,19.40
2017-09-15T00:32:36.763Z,19.20
2017-09-15T00:32:40.984Z,18.90
2017-09-15T00:32:45.237Z,18.13
2017-09-15T00:32:49.520Z,18.35
2017-09-15T00:32:53.740Z,18.85
2017-09-15T00:32:57.994Z,18.60
2017-09-15T00:33:02.251Z,18.10
2017-09-15T00:33:06.571Z,17.35
2017-09-15T00:33:11.188Z,16.20
2017-09-15T00:33:15.426Z,15.77
2017-09-15T00:33:20.433Z,15.70
2017-09-15T00:33:24.687Z,15.93
2017-09-15T00:33:28.928Z,15.80
2017-09-15T00:33:33.172Z,15.60
2017-09-15T00:33:37.413Z,15.80
2017-09-15T00:33:41.666Z,16.10
2017-09-15T00:33:45.896Z,17.53
2017-09-15T00:33:50.129Z,17.70
2017-09-15T00:33:54.394Z,17.65
2017-09-15T00:33:58.626Z,17.90
2017-09-15T00:34:02.889Z,17.67
2017-09-15T00:34:07.156Z,17.85
2017-09-15T00:34:12.165Z,18.80
2017-09-15T00:34:17.195Z,19.80
2017-09-15T00:34:21.455Z,20.00
2017-09-15T00:34:25.707Z,19.70
2017-09-15T00:34:29.953Z,19.75
2017-09-15T00:34:34.198Z,20.05
2017-09-15T00:34:39.206Z,19.75
2017-09-15T00:34:44.220Z,19.47
2017-09-15T00:34:48.444Z,18.50
2017-09-15T00:34:52.688Z,18.27
2017-09-15T00:34:56.938Z,18.40
2017-09-15T00:35:01.164Z,18.35
2017-09-15T00:35:05.415Z,18.75
2017-09-15T00:35:10.426Z,18.87
2017-09-15T00:35:14.694Z,17.80
2017-09-15T00:35:18.920Z,17.20
2017-09-15T00:35:23.156Z,18.10
2017-09-15T00:35:27.412Z,18.97
2017-09-15T00:35:31.672Z,18.75
2017-09-15T00:35:35.921Z,18.30
2017-09-15T00:35:40.162Z,17.95
2017-09-15T00:35:44.428Z,17.80
2017-09-15T00:35:48.686Z,17.70
2017-09-15T00:35:52.937Z,17.95
2017-09-15T00:35:57.947Z,17.95
2017-09-15T00:36:02.198Z,18.73
2017-09-15T00:36:06.455Z,18.73
2017-09-15T00:36:11.478Z,18.70
2017-09-15T00:36:16.498Z,18.70
2017-09-15T00:36:21.547Z,18.37
2017-09-15T00:36:25.777Z,16.93
2017-09-15T00:36:30.030Z,17.10
2017-09-15T00:36:34.283Z,17.07
2017-09-15T00:36:38.524Z,17.20
2017-09-15T00:36:42.785Z,17.00
2017-09-15T00:36:47.037Z,16.60
2017-09-15T00:36:51.292Z,16.27
2017-09-15T00:36:55.524Z,16.30
2017-09-15T00:36:59.807Z,16.00
2017-09-15T00:37:04.818Z,15.40
2017-09-15T00:37:09.074Z,15.30
2017-09-15T00:37:13.318Z,15.35
2017-09-15T00:37:17.553Z,16.05
2017-09-15T00:37:21.789Z,16.70
2017-09-15T00:37:26.034Z,16.67
2017-09-15T00:37:31.076Z,16.20
2017-09-15T00:37:35.311Z,16.20
2017-09-15T00:37:39.578Z,15.90
2017-09-15T00:37:43.813Z,16.53
2017-09-15T00:37:48.056Z,17.00
2017-09-15T00:37:52.299Z,16.75
2017-09-15T00:37:56.541Z,16.00
2017-09-15T00:38:01.559Z,15.47
2017-09-15T00:38:05.823Z,15.37
2017-09-15T00:38:10.070Z,15.30
2017-09-15T00:38:15.082Z,15.40
2017-09-15T00:38:20.080Z,15.70
2017-09-15T00:38:24.324Z,15.77
2017-09-15T00:38:28.564Z,15.60
2017-09-15T00:38:32.820Z,16.00
2017-09-15T00:38:37.060Z,16.05
2017-09-15T00:38:41.314Z,16.10
2017-09-15T00:38:46.313Z,15.73
2017-09-15T00:38:51.326Z,15.33
2017-09-15T00:38:55.590Z,15.00
2017-09-15T00:38:59.860Z,14.95
2017-09-15T00:39:04.115Z,15.00
2017-09-15T00:39:08.358Z,15.80
2017-09-15T00:39:12.614Z,17.63
2017-09-15T00:39:16.863Z,17.65
2017-09-15T00:39:21.100Z,17.20
2017-09-15T00:39:25.362Z,16.95
2017-09-15T00:39:29.604Z,17.17
2017-09-15T00:39:33.861Z,16.70
2017-09-15T00:39:38.087Z,16.70
2017-09-15T00:39:42.347Z,16.70
2017-09-15T00:39:47.367Z,17.65
2017-09-15T00:39:51.610Z,18.03
2017-09-15T00:39:55.849Z,18.40
2017-09-15T00:40:00.863Z,18.70
2017-09-15T00:40:05.112Z,18.53
2017-09-15T00:40:09.344Z,17.67
2017-09-15T00:40:13.586Z,15.80
2017-09-15T00:40:17.824Z,15.80
2017-09-15T00:40:22.075Z,16.10
2017-09-15T00:40:27.111Z,16.27
2017-09-15T00:40:31.349Z,16.73
2017-09-15T00:40:35.606Z,17.00
2017-09-15T00:40:40.618Z,17.70
2017-09-15T00:40:44.857Z,18.40
2017-09-15T00:40:49.110Z,17.87
2017-09-15T00:40:54.132Z,17.55
2017-09-15T00:40:59.169Z,17.93
2017-09-15T00:41:03.404Z,18.60
2017-09-15T00:41:07.655Z,18.15
2017-09-15T00:41:12.661Z,17.67
2017-09-15T00:41:16.922Z,16.90
2017-09-15T00:41:21.177Z,16.15
2017-09-15T00:41:26.174Z,15.60
2017-09-15T00:41:31.186Z,15.03
2017-09-15T00:41:35.437Z,15.53
2017-09-15T00:41:39.700Z,15.30
2017-09-15T00:41:44.711Z,14.40
2017-09-15T00:41:49.723Z,14.50
2017-09-15T00:41:53.961Z,15.80
2017-09-15T00:41:58.212Z,16.65
2017-09-15T00:42:02.449Z,16.55
2017-09-15T00:42:06.702Z,16.20
2017-09-15T00:42:10.959Z,16.55
2017-09-15T00:42:15.212Z,16.85
2017-09-15T00:42:19.441Z,18.35
2017-09-15T00:42:23.709Z,19.70
2017-09-15T00:42:27.944Z,20.45
2017-09-15T00:42:32.191Z,20.05
2017-09-15T00:42:36.438Z,19.20
2017-09-15T00:42:41.454Z,18.97
2017-09-15T00:42:46.456Z,19.13
2017-09-15T00:42:50.710Z,19.07
2017-09-15T00:42:54.976Z,18.15
2017-09-15T00:42:59.992Z,17.20
2017-09-15T00:43:04.998Z,17.33
2017-09-15T00:43:09.268Z,17.50
2017-09-15T00:43:13.517Z,17.53
2017-09-15T00:43:18.521Z,16.70
2017-09-15T00:43:23.537Z,15.93
2017-09-15T00:43:28.562Z,15.07
2017-09-15T00:43:33.573Z,15.97
2017-09-15T00:43:38.572Z,15.87
2017-09-15T00:43:42.868Z,15.20
2017-09-15T00:43:47.124Z,14.45
2017-09-15T00:43:51.378Z,13.93
2017-09-15T00:43:55.623Z,13.75
2017-09-15T00:43:59.856Z,13.30
2017-09-15T00:44:04.109Z,13.27
2017-09-15T00:44:09.130Z,13.10
2017-09-15T00:44:13.390Z,12.87
2017-09-15T00:44:17.633Z,12.60
2017-09-15T00:44:21.868Z,12.10
2017-09-15T00:44:26.108Z,12.40
2017-09-15T00:44:31.134Z,11.80
2017-09-15T00:44:36.152Z,11.97
2017-09-15T00:44:41.164Z,12.10
2017-09-15T00:44:46.211Z,12.70
2017-09-15T00:44:50.448Z,13.63
2017-09-15T00:44:54.700Z,13.80
2017-09-15T00:44:59.781Z,14.13
2017-09-15T00:45:04.782Z,14.10
2017-09-15T00:45:09.032Z,14.90
2017-09-15T00:45:13.265Z,15.40
2017-09-15T00:45:17.522Z,15.80
2017-09-15T00:45:22.516Z,15.53
2017-09-15T00:45:26.759Z,15.00
2017-09-15T00:45:31.005Z,15.25
2017-09-15T00:45:35.259Z,15.70
2017-09-15T00:45:39.502Z,15.40
2017-09-15T00:45:43.736Z,14.90
2017-09-15T00:45:48.749Z,13.95
2017-09-15T00:45:53.782Z,13.73
2017-09-15T00:45:58.786Z,13.50
2017-09-15T00:46:03.026Z,13.47
2017-09-15T00:46:07.273Z,12.85
2017-09-15T00:46:11.496Z,11.55
2017-09-15T00:46:16.570Z,11.20
2017-09-15T00:46:20.799Z,11.33
2017-09-15T00:46:25.029Z,12.10
2017-09-15T00:46:29.257Z,11.90
2017-09-15T00:46:33.491Z,11.30
2017-09-15T00:46:37.716Z,11.35
2017-09-15T00:46:42.753Z,11.65
2017-09-15T00:46:46.990Z,12.43
2017-09-15T00:46:51.998Z,12.80
2017-09-15T00:46:56.228Z,12.70
2017-09-15T00:47:00.484Z,13.03
2017-09-15T00:47:04.704Z,13.65
2017-09-15T00:47:08.955Z,14.10
2017-09-15T00:47:13.944Z,15.15
2017-09-15T00:47:18.191Z,15.37
2017-09-15T00:47:22.446Z,15.07
2017-09-15T00:47:26.686Z,14.75
2017-09-15T00:47:30.939Z,14.60
2017-09-15T00:47:35.174Z,14.20
2017-09-15T00:47:40.168Z,14.05
2017-09-15T00:47:44.400Z,13.50
2017-09-15T00:47:48.655Z,13.35
2017-09-15T00:47:52.889Z,13.45
2017-09-15T00:47:57.884Z,13.07
2017-09-15T00:48:02.138Z,12.77
2017-09-15T00:48:06.386Z,12.85
2017-09-15T00:48:10.634Z,12.60
2017-09-15T00:48:14.874Z,11.90
2017-09-15T00:48:19.141Z,12.00
2017-09-15T00:48:23.360Z,12.80
2017-09-15T00:48:27.606Z,12.50
2017-09-15T00:48:32.616Z,12.75
2017-09-15T00:48:37.617Z,13.00
2017-09-15T00:48:41.868Z,13.73
2017-09-15T00:48:46.118Z,14.05
2017-09-15T00:48:50.350Z,13.80
2017-09-15T00:48:54.579Z,13.95
2017-09-15T00:48:58.813Z,14.80
2017-09-15T00:49:03.285Z,14.10
2017-09-15T00:49:07.507Z,13.45
2017-09-15T00:49:11.753Z,13.93
2017-09-15T00:49:15.991Z,14.55
2017-09-15T00:49:20.234Z,14.00
2017-09-15T00:49:25.252Z,13.95
2017-09-15T00:49:30.262Z,14.33
2017-09-15T00:49:34.485Z,14.50
2017-09-15T00:49:38.732Z,13.97
2017-09-15T00:49:42.974Z,13.50
2017-09-15T00:49:47.968Z,13.05
2017-09-15T00:49:52.193Z,12.80
2017-09-15T00:49:57.214Z,12.30
2017-09-15T00:50:02.226Z,11.70
2017-09-15T00:50:07.245Z,11.88
2017-09-15T00:50:12.259Z,11.43
2017-09-15T00:50:17.290Z,10.70
2017-09-15T00:50:22.296Z,9.90
2017-09-15T00:50:27.298Z,10.43
2017-09-15T00:50:31.559Z,10.63
2017-09-15T00:50:35.780Z,10.65
2017-09-15T00:50:40.028Z,10.50
2017-09-15T00:50:45.034Z,10.50
2017-09-15T00:50:50.050Z,11.03
2017-09-15T00:50:55.061Z,11.25
2017-09-15T00:51:00.069Z,11.80
2017-09-15T00:51:04.316Z,11.70
2017-09-15T00:51:08.552Z,12.10
2017-09-15T00:51:12.807Z,12.45
2017-09-15T00:51:17.032Z,12.90
2017-09-15T00:51:21.290Z,12.93
2017-09-15T00:51:26.307Z,12.05
2017-09-15T00:51:30.547Z,12.20
2017-09-15T00:51:34.790Z,12.50
2017-09-15T00:51:39.045Z,12.65
2017-09-15T00:51:43.300Z,13.40
2017-09-15T00:51:48.304Z,13.05
2017-09-15T00:51:53.309Z,13.07
2017-09-15T00:51:57.564Z,12.57
2017-09-15T00:52:01.793Z,12.50
2017-09-15T00:52:06.054Z,12.40
2017-09-15T00:52:10.306Z,12.15
2017-09-15T00:52:14.554Z,11.85
2017-09-15T00:52:19.545Z,12.30
2017-09-15T00:52:23.792Z,12.93
2017-09-15T00:52:28.054Z,12.80
2017-09-15T00:52:32.285Z,12.00
2017-09-15T00:52:36.527Z,11.70
2017-09-15T00:52:40.752Z,11.50
2017-09-15T00:52:45.753Z,11.40
2017-09-15T00:52:49.992Z,11.50
2017-09-15T00:52:54.235Z,11.55
2017-09-15T00:52:58.487Z,11.70
2017-09-15T00:53:03.491Z,11.67
2017-09-15T00:53:08.502Z,11.40
2017-09-15T00:53:13.515Z,11.37
2017-09-15T00:53:17.769Z,11.23
2017-09-15T00:53:22.037Z,11.05
2017-09-15T00:53:26.287Z,10.90
2017-09-15T00:53:30.517Z,10.60
2017-09-15T00:53:35.516Z,10.70
2017-09-15T00:53:39.780Z,11.27
2017-09-15T00:53:44.012Z,11.30
2017-09-15T00:53:48.245Z,11.15
2017-09-15T00:53:53.244Z,11.93
2017-09-15T00:53:57.491Z,12.63
2017-09-15T00:54:01.747Z,13.10
2017-09-15T00:54:05.989Z,13.00
2017-09-15T00:54:10.221Z,13.00
2017-09-15T00:54:14.474Z,12.33
2017-09-15T00:54:18.722Z,12.15
2017-09-15T00:54:22.980Z,11.60
2017-09-15T00:54:27.960Z,12.05
2017-09-15T00:54:32.215Z,12.60
2017-09-15T00:54:36.468Z,12.20
2017-09-15T00:54:40.717Z,11.85
2017-09-15T00:54:44.959Z,12.35
2017-09-15T00:54:49.202Z,12.85
2017-09-15T00:54:53.450Z,12.10
2017-09-15T00:54:57.689Z,11.30
2017-09-15T00:55:01.925Z,11.30
2017-09-15T00:55:06.160Z,12.60
2017-09-15T00:55:10.427Z,13.25
2017-09-15T00:55:14.657Z,13.25
2017-09-15T00:55:18.897Z,13.70
2017-09-15T00:55:23.136Z,14.03
2017-09-15T00:55:27.369Z,13.30
2017-09-15T00:55:32.383Z,13.20
2017-09-15T00:55:36.616Z,13.30
2017-09-15T00:55:40.848Z,13.35
2017-09-15T00:55:45.111Z,13.23
2017-09-15T00:55:49.332Z,12.80
2017-09-15T00:55:53.561Z,12.85
2017-09-15T00:55:57.796Z,13.20
2017-09-15T00:56:02.802Z,13.00
2017-09-15T00:56:07.816Z,12.03
2017-09-15T00:56:12.049Z,12.20
2017-09-15T00:56:16.291Z,13.15
2017-09-15T00:56:20.530Z,14.25
2017-09-15T00:56:25.531Z,15.60
2017-09-15T00:56:30.541Z,16.20
2017-09-15T00:56:34.806Z,16.55
2017-09-15T00:56:39.082Z,16.80
2017-09-15T00:56:44.102Z,16.20
2017-09-15T00:56:48.360Z,16.07
2017-09-15T00:56:52.602Z,15.80
2017-09-15T00:56:56.863Z,16.03
2017-09-15T00:57:01.115Z,16.35
2017-09-15T00:57:05.363Z,16.20
2017-09-15T00:57:10.372Z,15.85
2017-09-15T00:57:14.635Z,15.38
2017-09-15T00:57:18.880Z,15.20
2017-09-15T00:57:23.138Z,13.90
2017-09-15T00:57:27.368Z,14.25
2017-09-15T00:57:31.620Z,13.87